sensor_id;sensor_type;location;lat;lon;timestamp;pressure;altitude;pressure_sealevel;temperature;humidity
46223;BME280;31943;51.410;7.564;2023-08-08T00:02:23;100166.16;;;15.48;64.30
46223;BME280;31943;51.410;7.564;2023-08-08T00:04:50;100161.75;;;15.48;64.08
46223;BME280;31943;51.410;7.564;2023-08-08T00:07:16;100162.59;;;15.50;64.02
46223;BME280;31943;51.410;7.564;2023-08-08T00:09:42;100155.59;;;15.51;64.13
46223;BME280;31943;51.410;7.564;2023-08-08T00:12:08;100155.59;;;15.51;63.99
46223;BME280;31943;51.410;7.564;2023-08-08T00:14:34;100151.19;;;15.53;64.00
46223;BME280;31943;51.410;7.564;2023-08-08T00:16:59;100150.28;;;15.55;63.87
46223;BME280;31943;51.410;7.564;2023-08-08T00:19:25;100139.75;;;15.55;64.00
46223;BME280;31943;51.410;7.564;2023-08-08T00:21:53;100136.25;;;15.56;63.81
46223;BME280;31943;51.410;7.564;2023-08-08T00:24:19;100135.34;;;15.57;63.81
46223;BME280;31943;51.410;7.564;2023-08-08T00:26:44;100125.78;;;15.52;63.64
46223;BME280;31943;51.410;7.564;2023-08-08T00:29:10;100126.63;;;15.52;63.82
46223;BME280;31943;51.410;7.564;2023-08-08T00:31:36;100121.38;;;15.52;63.87
46223;BME280;31943;51.410;7.564;2023-08-08T00:34:02;100132.78;;;15.54;63.67
46223;BME280;31943;51.410;7.564;2023-08-08T00:36:27;100129.25;;;15.52;63.82
46223;BME280;31943;51.410;7.564;2023-08-08T00:38:54;100124.00;;;15.52;63.67
46223;BME280;31943;51.410;7.564;2023-08-08T00:41:20;100127.50;;;15.54;63.96
46223;BME280;31943;51.410;7.564;2023-08-08T00:43:46;100130.16;;;15.53;64.04
46223;BME280;31943;51.410;7.564;2023-08-08T00:46:11;100131.03;;;15.52;63.61
46223;BME280;31943;51.410;7.564;2023-08-08T00:48:37;100124.03;;;15.51;63.89
46223;BME280;31943;51.410;7.564;2023-08-08T00:51:03;100124.06;;;15.48;63.81
46223;BME280;31943;51.410;7.564;2023-08-08T00:53:30;100127.59;;;15.47;63.62
46223;BME280;31943;51.410;7.564;2023-08-08T00:55:58;100125.84;;;15.46;63.71
46223;BME280;31943;51.410;7.564;2023-08-08T00:58:24;100118.88;;;15.43;64.12
46223;BME280;31943;51.410;7.564;2023-08-08T01:00:50;100130.25;;;15.42;63.77
46223;BME280;31943;51.410;7.564;2023-08-08T01:03:15;100121.50;;;15.43;63.67
46223;BME280;31943;51.410;7.564;2023-08-08T01:05:43;100121.53;;;15.40;63.74
46223;BME280;31943;51.410;7.564;2023-08-08T01:08:16;100118.94;;;15.37;63.64
46223;BME280;31943;51.410;7.564;2023-08-08T01:10:46;100111.09;;;15.34;63.26
46223;BME280;31943;51.410;7.564;2023-08-08T01:13:16;100116.34;;;15.34;63.38
46223;BME280;31943;51.410;7.564;2023-08-08T01:15:44;100113.78;;;15.29;63.38
46223;BME280;31943;51.410;7.564;2023-08-08T01:18:11;100115.56;;;15.27;63.46
46223;BME280;31943;51.410;7.564;2023-08-08T01:20:38;100112.94;;;15.27;63.45
46223;BME280;31943;51.410;7.564;2023-08-08T01:23:10;100124.31;;;15.28;63.48
46223;BME280;31943;51.410;7.564;2023-08-08T01:25:40;100122.59;;;15.23;63.35
46223;BME280;31943;51.410;7.564;2023-08-08T01:28:07;100120.84;;;15.24;63.04
46223;BME280;31943;51.410;7.564;2023-08-08T01:30:33;100114.72;;;15.22;63.28
46223;BME280;31943;51.410;7.564;2023-08-08T01:32:59;100117.34;;;15.25;63.29
46223;BME280;31943;51.410;7.564;2023-08-08T01:35:28;100116.41;;;15.28;63.09
46223;BME280;31943;51.410;7.564;2023-08-08T01:37:59;100113.78;;;15.28;63.15
46223;BME280;31943;51.410;7.564;2023-08-08T01:40:28;100111.16;;;15.26;62.80
46223;BME280;31943;51.410;7.564;2023-08-08T01:42:56;100111.19;;;15.25;62.71
46223;BME280;31943;51.410;7.564;2023-08-08T01:45:22;100117.34;;;15.23;63.04
46223;BME280;31943;51.410;7.564;2023-08-08T01:47:49;100106.84;;;15.22;63.08
46223;BME280;31943;51.410;7.564;2023-08-08T01:50:15;100108.59;;;15.21;62.90
46223;BME280;31943;51.410;7.564;2023-08-08T01:52:41;100114.75;;;15.20;62.83
46223;BME280;31943;51.410;7.564;2023-08-08T01:55:07;100112.09;;;15.22;62.73
46223;BME280;31943;51.410;7.564;2023-08-08T01:57:33;100106.00;;;15.20;62.65
46223;BME280;31943;51.410;7.564;2023-08-08T02:00:00;100101.59;;;15.19;62.86
46223;BME280;31943;51.410;7.564;2023-08-08T02:02:26;100098.13;;;15.18;62.61
46223;BME280;31943;51.410;7.564;2023-08-08T02:04:52;100097.25;;;15.19;62.75
46223;BME280;31943;51.410;7.564;2023-08-08T02:07:17;100098.97;;;15.20;62.62
46223;BME280;31943;51.410;7.564;2023-08-08T02:09:43;100092.00;;;15.19;62.87
46223;BME280;31943;51.410;7.564;2023-08-08T02:12:09;100094.63;;;15.19;62.99
46223;BME280;31943;51.410;7.564;2023-08-08T02:14:36;100086.75;;;15.18;62.84
46223;BME280;31943;51.410;7.564;2023-08-08T02:17:04;100092.88;;;15.17;62.63
46223;BME280;31943;51.410;7.564;2023-08-08T02:19:30;100088.53;;;15.14;62.74
46223;BME280;31943;51.410;7.564;2023-08-08T02:21:58;100086.81;;;15.13;62.92
46223;BME280;31943;51.410;7.564;2023-08-08T02:24:23;100071.03;;;15.12;62.72
46223;BME280;31943;51.410;7.564;2023-08-08T02:26:49;100073.69;;;15.10;62.96
46223;BME280;31943;51.410;7.564;2023-08-08T02:29:15;100069.34;;;15.08;62.57
46223;BME280;31943;51.410;7.564;2023-08-08T02:31:40;100070.22;;;15.05;62.62
46223;BME280;31943;51.410;7.564;2023-08-08T02:34:08;100066.78;;;15.01;62.65
46223;BME280;31943;51.410;7.564;2023-08-08T02:36:33;100072.06;;;15.00;62.73
46223;BME280;31943;51.410;7.564;2023-08-08T02:38:59;100065.91;;;15.01;62.77
46223;BME280;31943;51.410;7.564;2023-08-08T02:41:25;100067.66;;;14.99;62.87
46223;BME280;31943;51.410;7.564;2023-08-08T02:43:50;100060.63;;;15.01;62.67
46223;BME280;31943;51.410;7.564;2023-08-08T02:46:16;100066.75;;;15.03;62.71
46223;BME280;31943;51.410;7.564;2023-08-08T02:48:42;100078.97;;;15.07;62.60
46223;BME280;31943;51.410;7.564;2023-08-08T02:51:09;100077.22;;;15.06;62.71
46223;BME280;31943;51.410;7.564;2023-08-08T02:53:35;100065.81;;;15.07;62.63
46223;BME280;31943;51.410;7.564;2023-08-08T02:56:00;100065.88;;;15.06;62.86
46223;BME280;31943;51.410;7.564;2023-08-08T02:58:26;100055.34;;;15.06;62.67
46223;BME280;31943;51.410;7.564;2023-08-08T03:00:52;100058.84;;;15.06;62.75
46223;BME280;31943;51.410;7.564;2023-08-08T03:03:18;100050.94;;;15.08;62.92
46223;BME280;31943;51.410;7.564;2023-08-08T03:05:44;100051.81;;;15.08;62.57
46223;BME280;31943;51.410;7.564;2023-08-08T03:08:11;100054.44;;;15.08;62.73
46223;BME280;31943;51.410;7.564;2023-08-08T03:10:37;100051.81;;;15.07;62.81
46223;BME280;31943;51.410;7.564;2023-08-08T03:13:03;100058.84;;;15.05;63.04
46223;BME280;31943;51.410;7.564;2023-08-08T03:15:29;100052.72;;;15.06;63.08
46223;BME280;31943;51.410;7.564;2023-08-08T03:17:54;100056.28;;;15.01;63.40
46223;BME280;31943;51.410;7.564;2023-08-08T03:20:20;100058.00;;;15.04;63.08
46223;BME280;31943;51.410;7.564;2023-08-08T03:22:46;100054.47;;;15.05;63.10
46223;BME280;31943;51.410;7.564;2023-08-08T03:25:13;100051.81;;;15.05;63.02
46223;BME280;31943;51.410;7.564;2023-08-08T03:27:39;100043.09;;;15.05;63.00
46223;BME280;31943;51.410;7.564;2023-08-08T03:33:13;100038.69;;;15.05;63.03
46223;BME280;31943;51.410;7.564;2023-08-08T03:35:39;100034.31;;;15.06;63.32
46223;BME280;31943;51.410;7.564;2023-08-08T03:38:05;100025.59;;;15.02;63.48
46223;BME280;31943;51.410;7.564;2023-08-08T03:40:32;100033.50;;;15.02;63.69
46223;BME280;31943;51.410;7.564;2023-08-08T03:42:58;100040.53;;;15.00;63.56
46223;BME280;31943;51.410;7.564;2023-08-08T03:45:24;100035.28;;;14.97;63.72
46223;BME280;31943;51.410;7.564;2023-08-08T03:47:49;100040.53;;;14.97;63.97
46223;BME280;31943;51.410;7.564;2023-08-08T03:50:15;100036.19;;;14.96;63.94
46223;BME280;31943;51.410;7.564;2023-08-08T03:52:41;100042.28;;;14.98;64.32
46223;BME280;31943;51.410;7.564;2023-08-08T03:55:06;100050.19;;;14.96;64.38
46223;BME280;31943;51.410;7.564;2023-08-08T03:57:34;100060.69;;;14.96;64.67
46223;BME280;31943;51.410;7.564;2023-08-08T04:00:01;100067.75;;;14.91;64.91
46223;BME280;31943;51.410;7.564;2023-08-08T04:02:27;100071.28;;;14.90;64.72
46223;BME280;31943;51.410;7.564;2023-08-08T04:04:54;100070.44;;;14.87;65.32
46223;BME280;31943;51.410;7.564;2023-08-08T04:07:20;100064.34;;;14.81;66.50
46223;BME280;31943;51.410;7.564;2023-08-08T04:09:45;100053.91;;;14.78;67.16
46223;BME280;31943;51.410;7.564;2023-08-08T04:12:11;100055.69;;;14.75;67.68
46223;BME280;31943;51.410;7.564;2023-08-08T04:14:39;100043.41;;;14.74;68.10
46223;BME280;31943;51.410;7.564;2023-08-08T04:17:05;100043.41;;;14.75;68.29
46223;BME280;31943;51.410;7.564;2023-08-08T04:19:33;100039.91;;;14.76;68.66
46223;BME280;31943;51.410;7.564;2023-08-08T04:21:58;100044.31;;;14.74;68.90
46223;BME280;31943;51.410;7.564;2023-08-08T04:24:25;100043.47;;;14.69;68.88
46223;BME280;31943;51.410;7.564;2023-08-08T04:26:50;100046.09;;;14.71;69.01
46223;BME280;31943;51.410;7.564;2023-08-08T04:29:16;100037.34;;;14.69;69.30
46223;BME280;31943;51.410;7.564;2023-08-08T04:31:44;100029.47;;;14.67;69.64
46223;BME280;31943;51.410;7.564;2023-08-08T04:34:09;100027.78;;;14.63;69.61
46223;BME280;31943;51.410;7.564;2023-08-08T04:36:35;100034.81;;;14.59;69.87
46223;BME280;31943;51.410;7.564;2023-08-08T04:39:01;100036.53;;;14.62;70.04
46223;BME280;31943;51.410;7.564;2023-08-08T04:41:27;100041.75;;;14.65;70.05
46223;BME280;31943;51.410;7.564;2023-08-08T04:43:53;100048.72;;;14.68;70.16
46223;BME280;31943;51.410;7.564;2023-08-08T04:46:18;100041.75;;;14.67;70.43
46223;BME280;31943;51.410;7.564;2023-08-08T04:48:46;100048.72;;;14.68;70.37
46223;BME280;31943;51.410;7.564;2023-08-08T04:51:11;100039.94;;;14.72;70.34
46223;BME280;31943;51.410;7.564;2023-08-08T04:53:37;100032.06;;;14.72;70.44
46223;BME280;31943;51.410;7.564;2023-08-08T04:56:03;100028.56;;;14.71;70.20
46223;BME280;31943;51.410;7.564;2023-08-08T04:58:28;100026.78;;;14.73;70.23
46223;BME280;31943;51.410;7.564;2023-08-08T05:00:54;100025.94;;;14.71;70.21
46223;BME280;31943;51.410;7.564;2023-08-08T05:03:20;100029.44;;;14.72;70.54
46223;BME280;31943;51.410;7.564;2023-08-08T05:05:48;100024.16;;;14.75;70.20
46223;BME280;31943;51.410;7.564;2023-08-08T05:08:13;100023.25;;;14.76;70.35
46223;BME280;31943;51.410;7.564;2023-08-08T05:10:39;100025.00;;;14.78;70.34
46223;BME280;31943;51.410;7.564;2023-08-08T05:13:05;100032.88;;;14.77;70.57
46223;BME280;31943;51.410;7.564;2023-08-08T05:15:31;100030.25;;;14.78;70.54
46223;BME280;31943;51.410;7.564;2023-08-08T05:17:56;100026.78;;;14.76;70.57
46223;BME280;31943;51.410;7.564;2023-08-08T05:20:23;100033.75;;;14.76;70.69
46223;BME280;31943;51.410;7.564;2023-08-08T05:22:51;100029.41;;;14.75;70.72
46223;BME280;31943;51.410;7.564;2023-08-08T05:25:18;100029.41;;;14.75;70.98
46223;BME280;31943;51.410;7.564;2023-08-08T05:27:43;100018.88;;;14.78;70.82
46223;BME280;31943;51.410;7.564;2023-08-08T05:30:10;100024.09;;;14.81;71.00
46223;BME280;31943;51.410;7.564;2023-08-08T05:32:35;100029.31;;;14.84;71.05
46223;BME280;31943;51.410;7.564;2023-08-08T05:35:02;100027.47;;;14.91;70.85
46223;BME280;31943;51.410;7.564;2023-08-08T05:37:28;100025.72;;;14.91;70.92
46223;BME280;31943;51.410;7.564;2023-08-08T05:39:55;100030.09;;;14.94;70.81
46223;BME280;31943;51.410;7.564;2023-08-08T05:42:21;100037.06;;;14.95;70.89
46223;BME280;31943;51.410;7.564;2023-08-08T05:44:46;100036.31;;;14.83;70.86
46223;BME280;31943;51.410;7.564;2023-08-08T05:47:12;100037.22;;;14.82;71.25
46223;BME280;31943;51.410;7.564;2023-08-08T05:49:38;100035.44;;;14.86;71.56
46223;BME280;31943;51.410;7.564;2023-08-08T05:52:05;100038.94;;;14.83;71.49
46223;BME280;31943;51.410;7.564;2023-08-08T05:54:31;100031.94;;;14.84;71.40
46223;BME280;31943;51.410;7.564;2023-08-08T05:56:59;100032.72;;;14.91;71.56
46223;BME280;31943;51.410;7.564;2023-08-08T05:59:24;100043.16;;;14.97;71.40
46223;BME280;31943;51.410;7.564;2023-08-08T06:01:52;100038.78;;;14.97;71.28
46223;BME280;31943;51.410;7.564;2023-08-08T06:04:18;100040.53;;;14.97;71.47
46223;BME280;31943;51.410;7.564;2023-08-08T06:06:44;100043.19;;;14.95;71.34
46223;BME280;31943;51.410;7.564;2023-08-08T06:09:10;100042.31;;;14.95;71.37
46223;BME280;31943;51.410;7.564;2023-08-08T06:11:39;100046.69;;;14.96;71.54
46223;BME280;31943;51.410;7.564;2023-08-08T06:14:06;100046.66;;;14.97;71.21
46223;BME280;31943;51.410;7.564;2023-08-08T06:16:32;100043.19;;;14.95;71.49
46223;BME280;31943;51.410;7.564;2023-08-08T06:18:57;100053.69;;;14.95;71.59
46223;BME280;31943;51.410;7.564;2023-08-08T06:21:23;100051.97;;;14.93;71.82
46223;BME280;31943;51.410;7.564;2023-08-08T06:23:49;100055.50;;;14.92;71.83
46223;BME280;31943;51.410;7.564;2023-08-08T06:26:14;100055.47;;;14.93;71.66
46223;BME280;31943;51.410;7.564;2023-08-08T06:28:40;100056.31;;;14.98;71.83
46223;BME280;31943;51.410;7.564;2023-08-08T06:31:07;100057.13;;;15.02;71.64
46223;BME280;31943;51.410;7.564;2023-08-08T06:33:33;100058.91;;;15.01;71.80
46223;BME280;31943;51.410;7.564;2023-08-08T06:35:58;100064.16;;;15.00;71.40
46223;BME280;31943;51.410;7.564;2023-08-08T06:38:25;100063.31;;;14.99;71.88
46223;BME280;31943;51.410;7.564;2023-08-08T06:40:50;100063.25;;;15.01;71.86
46223;BME280;31943;51.410;7.564;2023-08-08T06:45:42;100058.00;;;15.04;71.43
46223;BME280;31943;51.410;7.564;2023-08-08T06:48:09;100056.22;;;15.06;71.79
46223;BME280;31943;51.410;7.564;2023-08-08T06:50:37;100054.34;;;15.14;71.74
46223;BME280;31943;51.410;7.564;2023-08-08T06:53:04;100066.56;;;15.21;71.59
46223;BME280;31943;51.410;7.564;2023-08-08T06:55:30;100054.34;;;15.17;71.67
46223;BME280;31943;51.410;7.564;2023-08-08T06:57:55;100052.56;;;15.18;71.82
46223;BME280;31943;51.410;7.564;2023-08-08T07:00:22;100061.28;;;15.21;71.63
46223;BME280;31943;51.410;7.564;2023-08-08T07:02:47;100069.09;;;15.28;71.58
46223;BME280;31943;51.410;7.564;2023-08-08T07:05:14;100058.53;;;15.32;71.46
46223;BME280;31943;51.410;7.564;2023-08-08T07:07:40;100057.50;;;15.42;71.46
46223;BME280;31943;51.410;7.564;2023-08-08T07:10:06;100059.16;;;15.51;71.39
46223;BME280;31943;51.410;7.564;2023-08-08T07:12:32;100064.31;;;15.59;71.06
46223;BME280;31943;51.410;7.564;2023-08-08T07:14:57;100057.28;;;15.61;70.68
46223;BME280;31943;51.410;7.564;2023-08-08T07:17:23;100061.72;;;15.57;70.76
46223;BME280;31943;51.410;7.564;2023-08-08T07:19:49;100064.22;;;15.65;70.79
46223;BME280;31943;51.410;7.564;2023-08-08T07:22:16;100060.84;;;15.57;70.82
46223;BME280;31943;51.410;7.564;2023-08-08T07:24:42;100060.00;;;15.53;70.99
46223;BME280;31943;51.410;7.564;2023-08-08T07:27:07;100054.69;;;15.58;71.05
46223;BME280;31943;51.410;7.564;2023-08-08T07:29:33;100059.81;;;15.67;70.79
46223;BME280;31943;51.410;7.564;2023-08-08T07:31:58;100048.38;;;15.71;70.93
46223;BME280;31943;51.410;7.564;2023-08-08T07:34:27;100053.56;;;15.79;70.56
46223;BME280;31943;51.410;7.564;2023-08-08T07:36:53;100054.16;;;15.96;70.32
46223;BME280;31943;51.410;7.564;2023-08-08T07:39:21;100046.69;;;16.26;69.53
46223;BME280;31943;51.410;7.564;2023-08-08T07:41:46;100046.13;;;16.58;69.04
46223;BME280;31943;51.410;7.564;2023-08-08T07:44:12;100044.50;;;16.51;68.43
46223;BME280;31943;51.410;7.564;2023-08-08T07:46:38;100040.28;;;16.43;68.47
46223;BME280;31943;51.410;7.564;2023-08-08T07:49:03;100039.47;;;16.37;68.61
46223;BME280;31943;51.410;7.564;2023-08-08T07:51:29;100039.50;;;16.34;68.50
46223;BME280;31943;51.410;7.564;2023-08-08T07:53:54;100039.50;;;16.34;68.37
46223;BME280;31943;51.410;7.564;2023-08-08T07:56:21;100049.03;;;16.43;68.36
46223;BME280;31943;51.410;7.564;2023-08-08T07:58:47;100053.91;;;16.66;67.54
46223;BME280;31943;51.410;7.564;2023-08-08T08:01:12;100037.81;;;16.82;66.95
46223;BME280;31943;51.410;7.564;2023-08-08T08:03:38;100035.22;;;16.80;67.35
46223;BME280;31943;51.410;7.564;2023-08-08T08:06:03;100038.81;;;16.76;67.28
46223;BME280;31943;51.410;7.564;2023-08-08T08:08:29;100029.97;;;16.78;67.17
46223;BME280;31943;51.410;7.564;2023-08-08T08:10:54;100029.84;;;16.86;67.08
46223;BME280;31943;51.410;7.564;2023-08-08T08:13:21;100031.19;;;17.07;66.61
46223;BME280;31943;51.410;7.564;2023-08-08T08:15:47;100034.28;;;17.28;66.24
46223;BME280;31943;51.410;7.564;2023-08-08T08:18:13;100022.50;;;17.44;65.48
46223;BME280;31943;51.410;7.564;2023-08-08T08:20:39;100028.22;;;17.65;64.11
46223;BME280;31943;51.410;7.564;2023-08-08T08:23:04;100023.28;;;17.90;63.77
46223;BME280;31943;51.410;7.564;2023-08-08T08:25:30;100013.38;;;17.98;63.67
46223;BME280;31943;51.410;7.564;2023-08-08T08:27:55;100009.47;;;18.14;62.79
46223;BME280;31943;51.410;7.564;2023-08-08T08:30:23;100016.81;;;18.37;61.82
46223;BME280;31943;51.410;7.564;2023-08-08T08:32:48;100013.28;;;18.38;61.08
46223;BME280;31943;51.410;7.564;2023-08-08T08:35:14;100014.13;;;18.39;61.47
46223;BME280;31943;51.410;7.564;2023-08-08T08:37:39;100019.66;;;18.63;60.81
46223;BME280;31943;51.410;7.564;2023-08-08T08:40:06;100015.84;;;18.74;60.20
46223;BME280;31943;51.410;7.564;2023-08-08T08:42:32;100011.41;;;18.75;59.22
46223;BME280;31943;51.410;7.564;2023-08-08T08:44:59;100017.41;;;18.82;59.49
46223;BME280;31943;51.410;7.564;2023-08-08T08:47:30;100011.19;;;18.84;59.58
46223;BME280;31943;51.410;7.564;2023-08-08T08:49:57;100019.63;;;18.97;59.46
46223;BME280;31943;51.410;7.564;2023-08-08T08:52:23;100031.78;;;18.70;59.11
46223;BME280;31943;51.410;7.564;2023-08-08T08:54:49;100027.97;;;18.49;59.63
46223;BME280;31943;51.410;7.564;2023-08-08T08:57:15;100026.75;;;18.26;60.06
46223;BME280;31943;51.410;7.564;2023-08-08T08:59:41;100017.41;;;18.13;60.36
46223;BME280;31943;51.410;7.564;2023-08-08T09:02:08;100016.78;;;18.39;60.20
46223;BME280;31943;51.410;7.564;2023-08-08T09:04:37;100019.44;;;18.37;60.07
46223;BME280;31943;51.410;7.564;2023-08-08T09:07:05;100009.28;;;18.56;59.79
46223;BME280;31943;51.410;7.564;2023-08-08T09:09:32;100013.22;;;18.73;60.06
46223;BME280;31943;51.410;7.564;2023-08-08T09:11:57;100015.97;;;19.01;58.51
46223;BME280;31943;51.410;7.564;2023-08-08T09:14:25;100007.50;;;18.90;58.18
46223;BME280;31943;51.410;7.564;2023-08-08T09:16:51;100010.53;;;18.74;58.05
46223;BME280;31943;51.410;7.564;2023-08-08T09:19:17;100008.63;;;18.81;58.49
46223;BME280;31943;51.410;7.564;2023-08-08T09:21:44;100013.53;;;18.95;57.51
46223;BME280;31943;51.410;7.564;2023-08-08T09:24:10;100005.91;;;19.15;56.52
46223;BME280;31943;51.410;7.564;2023-08-08T09:26:35;100005.53;;;19.28;55.54
46223;BME280;31943;51.410;7.564;2023-08-08T09:29:01;100009.81;;;19.02;55.42
46223;BME280;31943;51.410;7.564;2023-08-08T09:31:28;100002.53;;;19.09;54.45
46223;BME280;31943;51.410;7.564;2023-08-08T09:33:54;100003.94;;;18.91;55.57
46223;BME280;31943;51.410;7.564;2023-08-08T09:36:22;99999.97;;;18.74;56.48
46223;BME280;31943;51.410;7.564;2023-08-08T09:38:49;99992.47;;;18.59;56.47
46223;BME280;31943;51.410;7.564;2023-08-08T09:41:15;100003.66;;;18.69;56.64
46223;BME280;31943;51.410;7.564;2023-08-08T09:43:43;99994.63;;;19.09;56.57
46223;BME280;31943;51.410;7.564;2023-08-08T09:46:09;99988.31;;;19.13;55.77
46223;BME280;31943;51.410;7.564;2023-08-08T09:48:35;100001.84;;;19.04;55.14
46223;BME280;31943;51.410;7.564;2023-08-08T09:51:04;100000.00;;;19.06;55.14
46223;BME280;31943;51.410;7.564;2023-08-08T09:53:31;99993.97;;;19.30;55.29
46223;BME280;31943;51.410;7.564;2023-08-08T09:56:00;99995.69;;;19.33;55.59
46223;BME280;31943;51.410;7.564;2023-08-08T09:58:27;99984.69;;;19.47;54.66
46223;BME280;31943;51.410;7.564;2023-08-08T10:00:54;99995.53;;;19.66;54.44
46223;BME280;31943;51.410;7.564;2023-08-08T10:03:19;99983.44;;;19.87;53.92
46223;BME280;31943;51.410;7.564;2023-08-08T10:05:47;99988.81;;;20.12;52.61
46223;BME280;31943;51.410;7.564;2023-08-08T10:08:15;99987.16;;;20.08;52.86
46223;BME280;31943;51.410;7.564;2023-08-08T10:10:43;99990.34;;;20.19;52.17
46223;BME280;31943;51.410;7.564;2023-08-08T10:13:19;99991.19;;;20.20;52.40
46223;BME280;31943;51.410;7.564;2023-08-08T10:15:45;99994.09;;;20.39;51.51
46223;BME280;31943;51.410;7.564;2023-08-08T10:18:12;99992.88;;;20.22;51.83
46223;BME280;31943;51.410;7.564;2023-08-08T10:20:39;100003.25;;;20.28;50.95
46223;BME280;31943;51.410;7.564;2023-08-08T10:23:07;99993.88;;;20.18;51.46
46223;BME280;31943;51.410;7.564;2023-08-08T10:25:33;99997.84;;;20.05;51.46
46223;BME280;31943;51.410;7.564;2023-08-08T10:28:03;100000.81;;;19.95;50.98
46223;BME280;31943;51.410;7.564;2023-08-08T10:30:40;100001.44;;;19.75;52.13
46223;BME280;31943;51.410;7.564;2023-08-08T10:33:16;99999.72;;;19.74;52.93
46223;BME280;31943;51.410;7.564;2023-08-08T10:36:10;99999.56;;;19.79;53.20
46223;BME280;31943;51.410;7.564;2023-08-08T10:38:43;99998.31;;;19.91;52.76
46223;BME280;31943;51.410;7.564;2023-08-08T10:41:15;99997.84;;;20.05;52.19
46223;BME280;31943;51.410;7.564;2023-08-08T10:43:51;99999.94;;;20.22;51.92
46223;BME280;31943;51.410;7.564;2023-08-08T10:46:25;99993.84;;;20.20;52.09
46223;BME280;31943;51.410;7.564;2023-08-08T10:48:54;99995.94;;;20.37;51.62
46223;BME280;31943;51.410;7.564;2023-08-08T10:51:20;99988.03;;;20.35;51.50
46223;BME280;31943;51.410;7.564;2023-08-08T10:53:51;99990.06;;;20.27;51.65
46223;BME280;31943;51.410;7.564;2023-08-08T10:56:18;99991.34;;;20.15;51.56
46223;BME280;31943;51.410;7.564;2023-08-08T10:58:48;99985.78;;;20.23;50.53
46223;BME280;31943;51.410;7.564;2023-08-08T11:01:16;99990.75;;;20.32;49.64
46223;BME280;31943;51.410;7.564;2023-08-08T11:03:48;100013.69;;;20.06;49.55
46223;BME280;31943;51.410;7.564;2023-08-08T11:06:15;99997.22;;;19.70;49.76
46223;BME280;31943;51.410;7.564;2023-08-08T11:08:47;99989.34;;;19.39;50.37
46223;BME280;31943;51.410;7.564;2023-08-08T11:11:13;99997.94;;;19.17;50.85
46223;BME280;31943;51.410;7.564;2023-08-08T11:13:41;100008.06;;;19.01;52.32
46223;BME280;31943;51.410;7.564;2023-08-08T11:16:18;100012.19;;;18.80;52.67
46223;BME280;31943;51.410;7.564;2023-08-08T11:19:12;100012.59;;;18.63;53.34
46223;BME280;31943;51.410;7.564;2023-08-08T11:21:44;100013.13;;;18.43;53.50
46223;BME280;31943;51.410;7.564;2023-08-08T11:24:16;100016.94;;;18.33;53.93
46223;BME280;31943;51.410;7.564;2023-08-08T11:27:01;100020.50;;;18.30;54.23
46223;BME280;31943;51.410;7.564;2023-08-08T11:29:28;100011.69;;;18.31;54.77
46223;BME280;31943;51.410;7.564;2023-08-08T11:31:56;100008.84;;;18.39;55.42
46223;BME280;31943;51.410;7.564;2023-08-08T11:35:07;100012.47;;;18.68;54.29
46223;BME280;31943;51.410;7.564;2023-08-08T11:37:34;100005.47;;;19.00;53.69
46223;BME280;31943;51.410;7.564;2023-08-08T11:42:32;99999.88;;;19.10;52.84
46223;BME280;31943;51.410;7.564;2023-08-08T11:45:12;100000.66;;;19.14;53.13
46223;BME280;31943;51.410;7.564;2023-08-08T11:47:52;100006.31;;;19.02;53.51
46223;BME280;31943;51.410;7.564;2023-08-08T11:50:28;100002.88;;;18.98;53.30
46223;BME280;31943;51.410;7.564;2023-08-08T11:52:59;100007.69;;;18.84;54.26
46223;BME280;31943;51.410;7.564;2023-08-08T11:55:57;100007.97;;;18.71;53.55
46223;BME280;31943;51.410;7.564;2023-08-08T11:58:24;100018.06;;;18.57;53.51
46223;BME280;31943;51.410;7.564;2023-08-08T12:01:18;100017.47;;;18.46;53.73
46223;BME280;31943;51.410;7.564;2023-08-08T12:03:47;100012.34;;;18.40;53.99
46223;BME280;31943;51.410;7.564;2023-08-08T12:06:21;100008.88;;;18.37;54.29
46223;BME280;31943;51.410;7.564;2023-08-08T12:08:48;100010.63;;;18.38;54.48
46223;BME280;31943;51.410;7.564;2023-08-08T12:11:15;100012.38;;;18.38;55.33
46223;BME280;31943;51.410;7.564;2023-08-08T12:13:42;100000.25;;;18.96;54.78
46223;BME280;31943;51.410;7.564;2023-08-08T12:16:11;99988.34;;;19.43;53.30
46223;BME280;31943;51.410;7.564;2023-08-08T12:18:40;99986.66;;;19.68;53.80
46223;BME280;31943;51.410;7.564;2023-08-08T12:21:33;99984.63;;;19.78;53.12
46223;BME280;31943;51.410;7.564;2023-08-08T12:24:06;99981.00;;;19.81;53.26
46223;BME280;31943;51.410;7.564;2023-08-08T12:26:33;99978.63;;;19.71;53.67
46223;BME280;31943;51.410;7.564;2023-08-08T12:29:14;99980.84;;;19.85;53.39
46223;BME280;31943;51.410;7.564;2023-08-08T12:32:05;99982.59;;;19.86;52.77
46223;BME280;31943;51.410;7.564;2023-08-08T12:34:32;99982.88;;;19.77;52.41
46223;BME280;31943;51.410;7.564;2023-08-08T12:37:01;99984.75;;;19.73;52.72
46223;BME280;31943;51.410;7.564;2023-08-08T12:39:27;99984.91;;;19.67;53.34
46223;BME280;31943;51.410;7.564;2023-08-08T12:41:53;99984.28;;;19.59;53.14
46223;BME280;31943;51.410;7.564;2023-08-08T12:44:21;99979.28;;;19.50;53.07
46223;BME280;31943;51.410;7.564;2023-08-08T12:46:49;99984.28;;;19.31;52.93
46223;BME280;31943;51.410;7.564;2023-08-08T12:49:17;99994.28;;;19.21;52.63
46223;BME280;31943;51.410;7.564;2023-08-08T12:51:50;99992.84;;;19.09;52.90
46223;BME280;31943;51.410;7.564;2023-08-08T12:54:19;100002.75;;;19.01;52.89
46223;BME280;31943;51.410;7.564;2023-08-08T12:56:46;100008.81;;;19.06;53.68
46223;BME280;31943;51.410;7.564;2023-08-08T12:59:14;99994.56;;;19.10;53.23
46223;BME280;31943;51.410;7.564;2023-08-08T13:01:59;100006.84;;;19.13;53.43
46223;BME280;31943;51.410;7.564;2023-08-08T13:04:30;100004.34;;;19.08;54.02